createdAt,value
2018-07-21T00:02:19.867Z,36.70
2018-07-21T00:07:23.236Z,37.10
2018-07-21T00:17:29.685Z,37.70
2018-07-21T00:22:33.145Z,38.20
2018-07-21T00:27:36.524Z,38.30
2018-07-21T00:32:39.893Z,38.20
2018-07-21T00:37:43.257Z,38.50
2018-07-21T00:42:46.667Z,38.50
2018-07-21T00:47:50.047Z,39.00
2018-07-21T00:52:53.448Z,39.10
2018-07-21T00:57:56.816Z,39.00
2018-07-21T01:03:00.182Z,39.60
2018-07-21T01:13:06.664Z,39.90
2018-07-21T01:18:10.248Z,40.00
2018-07-21T01:23:13.731Z,39.90
2018-07-21T01:28:17.119Z,40.10
2018-07-21T01:33:20.539Z,40.20
2018-07-21T01:38:23.918Z,40.40
2018-07-21T01:43:27.264Z,40.80
2018-07-21T01:48:30.672Z,40.60
2018-07-21T01:53:34.052Z,40.70
2018-07-21T01:58:37.425Z,41.10
2018-07-21T02:03:44.576Z,41.10
2018-07-21T02:08:47.994Z,41.00
2018-07-21T02:13:51.392Z,41.20
2018-07-21T02:18:54.787Z,41.50
2018-07-21T02:23:58.136Z,41.50
2018-07-21T02:29:01.525Z,41.50
2018-07-21T02:34:04.884Z,41.40
2018-07-21T02:39:09.817Z,41.90
2018-07-21T02:44:13.195Z,42.20
2018-07-21T02:54:19.656Z,42.30
2018-07-21T02:59:23.123Z,42.00
2018-07-21T03:04:26.535Z,42.40
2018-07-21T03:09:29.901Z,42.40
2018-07-21T03:14:33.284Z,42.30
2018-07-21T03:19:36.737Z,42.40
2018-07-21T03:24:40.133Z,42.80
2018-07-21T03:29:43.529Z,42.70
2018-07-21T03:34:46.882Z,42.70
2018-07-21T03:39:50.252Z,43.00
2018-07-21T03:44:53.626Z,42.90
2018-07-21T03:49:57.006Z,43.10
2018-07-21T03:55:00.348Z,43.40
2018-07-21T04:00:03.786Z,43.80
2018-07-21T04:05:07.152Z,43.60
2018-07-21T04:10:10.555Z,43.70
2018-07-21T04:15:13.909Z,43.70
2018-07-21T04:20:17.306Z,43.90
2018-07-21T04:25:20.692Z,43.80
2018-07-21T04:30:24.048Z,43.90
2018-07-21T04:35:27.411Z,44.00
2018-07-21T04:40:30.759Z,44.10
2018-07-21T04:45:34.149Z,44.30
2018-07-21T04:50:37.505Z,44.40
2018-07-21T04:55:40.868Z,44.50
2018-07-21T05:00:44.354Z,44.50
2018-07-21T05:05:47.681Z,44.60
2018-07-21T05:10:51.036Z,45.00
2018-07-21T05:20:57.677Z,45.20
2018-07-21T05:26:01.019Z,45.20
2018-07-21T05:31:04.413Z,45.50
2018-07-21T05:36:08.216Z,45.90
2018-07-21T05:41:11.611Z,46.20
2018-07-21T05:46:14.956Z,46.30
2018-07-21T05:51:18.316Z,46.50
2018-07-21T05:56:21.690Z,46.90
2018-07-21T06:01:25.051Z,46.80
2018-07-21T06:06:28.403Z,47.10
2018-07-21T06:11:31.855Z,47.10
2018-07-21T06:16:35.651Z,47.30
2018-07-21T06:21:39.063Z,47.50
2018-07-21T06:26:42.444Z,47.70
2018-07-21T06:31:45.892Z,47.70
2018-07-21T06:36:49.253Z,47.80
2018-07-21T06:41:52.672Z,48.00
2018-07-21T06:46:56.062Z,47.90
2018-07-21T06:51:59.447Z,48.00
2018-07-21T06:57:02.873Z,47.80
2018-07-21T07:02:06.627Z,47.80
2018-07-21T07:07:10.066Z,47.80
2018-07-21T07:12:13.525Z,47.90
2018-07-21T07:17:16.948Z,48.10
2018-07-21T07:22:20.335Z,48.30
2018-07-21T07:27:23.742Z,48.40
2018-07-21T07:32:27.111Z,48.60
2018-07-21T07:37:30.505Z,48.60
2018-07-21T07:42:33.992Z,48.50
2018-07-21T07:47:37.402Z,48.50
2018-07-21T07:52:40.802Z,48.50
2018-07-21T07:57:44.176Z,48.60
2018-07-21T08:07:50.633Z,48.40
2018-07-21T08:12:54.032Z,48.40
2018-07-21T08:17:57.386Z,48.20
2018-07-21T08:23:00.850Z,48.60
2018-07-21T08:28:04.216Z,48.60
2018-07-21T08:33:07.610Z,48.50
2018-07-21T08:38:11.060Z,48.60
2018-07-21T08:43:14.455Z,48.80
2018-07-21T08:48:17.881Z,48.80
2018-07-21T08:53:21.308Z,49.20
2018-07-21T08:58:24.679Z,49.60
2018-07-21T09:03:28.096Z,49.40
2018-07-21T09:08:31.480Z,49.80
2018-07-21T09:13:34.855Z,50.00
2018-07-21T09:18:38.245Z,50.10
2018-07-21T09:23:41.568Z,50.10
2018-07-21T09:28:44.907Z,50.40
2018-07-21T09:33:48.276Z,50.20
2018-07-21T09:38:51.618Z,50.30
2018-07-21T09:43:54.969Z,50.30
2018-07-21T09:48:58.332Z,50.60
2018-07-21T09:54:01.644Z,50.80
2018-07-21T09:59:05.019Z,50.70
2018-07-21T10:04:08.461Z,51.30
2018-07-21T10:09:12.178Z,50.80
2018-07-21T10:14:15.537Z,51.50
2018-07-21T10:19:18.932Z,51.10
2018-07-21T10:24:27.578Z,51.50
2018-07-21T10:29:30.949Z,51.70
2018-07-21T10:34:34.282Z,51.60
2018-07-21T10:39:37.646Z,51.70
2018-07-21T10:44:40.986Z,51.90
2018-07-21T10:49:44.334Z,52.10
2018-07-21T10:54:47.705Z,52.10
2018-07-21T10:59:51.128Z,52.40
2018-07-21T11:04:54.501Z,52.60
2018-07-21T11:09:57.856Z,52.90
2018-07-21T11:15:01.232Z,52.90
2018-07-21T11:20:05.342Z,53.00
2018-07-21T11:25:09.049Z,53.20
2018-07-21T11:30:12.402Z,53.20
2018-07-21T11:35:15.837Z,53.60
2018-07-21T11:40:19.121Z,53.30
2018-07-21T11:45:22.478Z,53.60
2018-07-21T11:50:25.813Z,53.80
2018-07-21T11:55:29.162Z,54.10
2018-07-21T12:00:32.540Z,54.10
2018-07-21T12:05:35.969Z,53.80
2018-07-21T12:10:39.341Z,54.30
2018-07-21T12:15:42.686Z,54.20
2018-07-21T12:20:46.035Z,54.20
2018-07-21T12:25:49.429Z,54.40
2018-07-21T12:30:52.770Z,54.80
2018-07-21T12:35:56.185Z,54.80
2018-07-21T12:40:59.615Z,54.90
2018-07-21T12:46:02.942Z,54.70
2018-07-21T12:51:06.443Z,54.60
2018-07-21T12:56:09.901Z,54.70
2018-07-21T13:01:13.267Z,54.60
2018-07-21T13:06:16.743Z,54.50
2018-07-21T13:11:20.149Z,54.70
2018-07-21T13:16:23.586Z,54.80
2018-07-21T13:21:27.171Z,54.70
2018-07-21T13:26:30.561Z,54.90
2018-07-21T13:31:33.991Z,54.90
2018-07-21T13:36:37.348Z,55.10
2018-07-21T13:41:40.941Z,55.20
2018-07-21T13:46:44.297Z,54.90
2018-07-21T13:51:47.677Z,54.90
2018-07-21T13:56:51.033Z,55.00
2018-07-21T14:01:54.393Z,54.90
2018-07-21T14:06:57.791Z,54.90
2018-07-21T14:12:01.175Z,54.70
2018-07-21T14:17:04.585Z,54.60
2018-07-21T14:22:08.035Z,54.70
2018-07-21T14:27:11.399Z,54.70
2018-07-21T14:32:14.776Z,54.90
2018-07-21T14:37:18.156Z,54.50
2018-07-21T14:42:21.536Z,54.50
2018-07-21T14:47:24.947Z,54.50
2018-07-21T14:52:28.387Z,54.70
2018-07-21T14:57:31.790Z,54.50
2018-07-21T15:02:35.253Z,54.50
2018-07-21T15:07:38.697Z,54.50
2018-07-21T15:12:42.096Z,54.50
2018-07-21T15:17:45.523Z,55.20
2018-07-21T15:22:48.946Z,54.10
2018-07-21T15:27:52.342Z,54.30
2018-07-21T15:32:55.724Z,54.50
2018-07-21T15:37:59.155Z,54.20
2018-07-21T15:43:02.549Z,54.30
2018-07-21T15:48:06.060Z,54.40
2018-07-21T15:53:09.441Z,54.20
2018-07-21T15:58:12.867Z,54.00
2018-07-21T16:03:16.312Z,53.70
2018-07-21T16:08:19.926Z,54.20
2018-07-21T16:13:23.365Z,54.70
2018-07-21T16:18:26.814Z,55.60
2018-07-21T16:23:30.245Z,54.50
2018-07-21T16:28:33.694Z,54.50
2018-07-21T16:33:37.141Z,55.30
2018-07-21T16:38:40.689Z,54.40
2018-07-21T16:43:44.133Z,54.40
2018-07-21T16:48:48.247Z,54.30
2018-07-21T16:53:51.697Z,54.30
2018-07-21T16:58:55.198Z,55.10
2018-07-21T17:03:58.649Z,54.20
2018-07-21T17:09:02.157Z,54.50
2018-07-21T17:14:05.600Z,54.90
2018-07-21T17:19:09.084Z,54.80
2018-07-21T17:24:12.412Z,54.70
2018-07-21T17:29:15.920Z,54.80
2018-07-21T17:34:19.357Z,55.00
2018-07-21T17:39:22.930Z,55.80
2018-07-21T17:44:26.290Z,55.20
2018-07-21T17:49:29.836Z,55.30
2018-07-21T17:54:33.305Z,55.30
2018-07-21T17:59:36.783Z,55.30
2018-07-21T18:04:40.205Z,55.40
2018-07-21T18:09:43.681Z,55.30
2018-07-21T18:14:47.178Z,55.20
2018-07-21T18:19:50.592Z,55.20
2018-07-21T18:24:54.040Z,55.40
2018-07-21T18:29:57.586Z,55.70
2018-07-21T18:35:01.139Z,56.30
2018-07-21T18:40:04.696Z,55.90
2018-07-21T18:45:08.126Z,56.00
2018-07-21T18:50:11.554Z,56.10
2018-07-21T18:55:14.998Z,56.20
2018-07-21T19:00:18.461Z,56.30
2018-07-21T19:05:21.876Z,56.70
2018-07-21T19:10:28.328Z,56.60
2018-07-21T19:15:37.219Z,56.80
2018-07-21T19:21:44.296Z,56.90
2018-07-21T19:26:54.305Z,57.00
2018-07-21T19:32:03.189Z,57.00
2018-07-21T19:37:11.659Z,57.00
2018-07-21T19:42:15.049Z,57.10
2018-07-21T19:47:18.595Z,57.90
2018-07-21T19:52:21.954Z,57.00
2018-07-21T19:57:25.368Z,56.90
2018-07-21T20:02:28.942Z,56.80
2018-07-21T20:12:35.520Z,56.80
2018-07-21T20:17:38.971Z,56.60
2018-07-21T20:22:42.423Z,56.70
2018-07-21T20:27:45.793Z,56.90
2018-07-21T20:32:49.195Z,56.70
2018-07-21T20:37:52.707Z,56.70
2018-07-21T20:42:56.150Z,56.70
2018-07-21T20:47:59.570Z,56.90
2018-07-21T20:53:03.862Z,56.80
2018-07-21T20:58:07.285Z,56.90
2018-07-21T21:03:10.681Z,57.00
2018-07-21T21:08:14.121Z,57.90
2018-07-21T21:13:17.500Z,57.10
2018-07-21T21:18:21.004Z,57.20
2018-07-21T21:23:24.467Z,57.30
2018-07-21T21:28:27.904Z,57.30
2018-07-21T21:33:31.327Z,57.50
2018-07-21T21:38:34.705Z,57.50
2018-07-21T21:43:38.144Z,57.50
2018-07-21T21:48:41.508Z,57.50
2018-07-21T21:53:44.932Z,58.30
2018-07-21T21:58:48.344Z,57.70
2018-07-21T22:03:51.719Z,57.60
2018-07-21T22:08:55.087Z,57.50
2018-07-21T22:13:58.500Z,57.70
2018-07-21T22:19:01.934Z,57.60
2018-07-21T22:24:05.328Z,57.90
2018-07-21T22:29:08.704Z,57.80
2018-07-21T22:34:12.168Z,57.90
2018-07-21T22:39:15.563Z,58.00
2018-07-21T22:44:18.968Z,58.00
2018-07-21T22:49:22.414Z,57.90
2018-07-21T22:54:25.801Z,58.00
2018-07-21T22:59:29.269Z,57.90
2018-07-21T23:04:32.636Z,57.90
2018-07-21T23:09:36.039Z,57.90
2018-07-21T23:14:39.504Z,58.30
2018-07-21T23:19:42.879Z,58.20
2018-07-21T23:24:46.261Z,58.20
2018-07-21T23:29:49.636Z,58.40
2018-07-21T23:34:53.047Z,58.30
2018-07-21T23:39:56.468Z,58.20
2018-07-21T23:44:59.882Z,58.30
2018-07-21T23:50:03.317Z,58.50
2018-07-21T23:55:07.508Z,58.40
